createdAt,value
2023-04-18T00:02:34.379Z,3.95
2023-04-18T00:05:24.125Z,3.90
2023-04-18T00:08:13.478Z,3.55
2023-04-18T00:11:02.909Z,3.45
2023-04-18T00:13:52.220Z,4.03
2023-04-18T00:16:41.487Z,3.83
2023-04-18T00:19:30.788Z,3.75
2023-04-18T00:22:23.591Z,3.85
2023-04-18T00:25:13.597Z,3.10
2023-04-18T00:28:02.839Z,4.30
2023-04-18T00:30:52.459Z,3.67
2023-04-18T00:33:41.829Z,3.03
2023-04-18T00:36:31.168Z,3.78
2023-04-18T00:39:20.677Z,3.65
2023-04-18T00:42:09.917Z,3.92
2023-04-18T00:44:59.171Z,3.50
2023-04-18T00:47:48.392Z,3.65
2023-04-18T00:50:39.176Z,3.55
2023-04-18T00:53:30.912Z,3.83
2023-04-18T00:56:20.284Z,4.00
2023-04-18T00:59:11.013Z,3.90
2023-04-18T01:02:01.675Z,4.10
2023-04-18T01:04:51.090Z,3.97
2023-04-18T01:07:42.701Z,3.90
2023-04-18T01:10:32.406Z,3.30
2023-04-18T01:13:22.536Z,3.17
2023-04-18T01:16:11.962Z,3.55
2023-04-18T01:19:04.991Z,3.50
2023-04-18T01:21:55.533Z,3.72
2023-04-18T01:24:44.820Z,3.95
2023-04-18T01:27:34.023Z,3.75
2023-04-18T01:30:23.447Z,3.85
2023-04-18T01:33:13.502Z,3.22
2023-04-18T01:36:02.717Z,3.60
2023-04-18T01:38:52.994Z,4.25
2023-04-18T01:41:43.344Z,3.30
2023-04-18T01:44:32.662Z,3.50
2023-04-18T01:47:21.905Z,3.78
2023-04-18T01:50:11.531Z,3.95
2023-04-18T01:53:00.976Z,3.50
2023-04-18T01:55:51.667Z,3.67
2023-04-18T01:58:42.621Z,3.40
2023-04-18T02:01:31.893Z,3.67
2023-04-18T02:04:21.446Z,3.60
2023-04-18T02:07:10.887Z,3.58
2023-04-18T02:10:00.188Z,3.55
2023-04-18T02:12:49.472Z,3.30
2023-04-18T02:15:38.850Z,3.58
2023-04-18T02:18:28.918Z,3.47
2023-04-18T02:21:18.203Z,3.30
2023-04-18T02:24:07.571Z,3.30
2023-04-18T02:26:56.915Z,3.40
2023-04-18T02:29:48.436Z,3.47
2023-04-18T02:32:37.739Z,3.13
2023-04-18T02:35:28.400Z,3.30
2023-04-18T02:38:17.681Z,3.78
2023-04-18T02:41:06.973Z,4.30
2023-04-18T02:43:56.543Z,3.85
2023-04-18T02:46:46.593Z,3.70
2023-04-18T02:49:35.790Z,3.72
2023-04-18T02:52:26.104Z,3.67
2023-04-18T02:55:15.420Z,4.00
2023-04-18T02:58:06.557Z,2.97
2023-04-18T03:01:14.353Z,3.10
2023-04-18T03:04:16.339Z,3.25
2023-04-18T03:07:15.491Z,3.40
2023-04-18T03:10:05.104Z,3.20
2023-04-18T03:12:57.198Z,3.45
2023-04-18T03:15:46.995Z,3.50
2023-04-18T03:18:36.227Z,3.35
2023-04-18T03:21:25.496Z,3.47
2023-04-18T03:24:15.228Z,3.85
2023-04-18T03:27:08.438Z,3.20
2023-04-18T03:30:00.094Z,3.30
2023-04-18T03:32:50.109Z,3.13
2023-04-18T03:35:39.540Z,3.80
2023-04-18T03:38:29.495Z,3.40
2023-04-18T03:41:18.877Z,3.20
2023-04-18T03:44:08.281Z,3.20
2023-04-18T03:46:59.482Z,3.42
2023-04-18T03:49:50.879Z,2.92
2023-04-18T03:52:40.832Z,3.08
2023-04-18T03:55:30.117Z,3.10
2023-04-18T03:58:24.718Z,3.15
2023-04-18T04:01:14.985Z,3.50
2023-04-18T04:04:05.016Z,3.13
2023-04-18T04:06:54.558Z,2.80
2023-04-18T04:09:43.707Z,3.25
2023-04-18T04:12:33.102Z,3.20
2023-04-18T04:15:22.420Z,2.92
2023-04-18T04:18:17.786Z,3.30
2023-04-18T04:21:07.838Z,3.28
2023-04-18T04:24:08.744Z,3.35
2023-04-18T04:27:02.802Z,3.10
2023-04-18T04:29:53.409Z,3.40
2023-04-18T04:32:42.741Z,3.00
2023-04-18T04:35:33.206Z,3.08
2023-04-18T04:38:26.041Z,3.42
2023-04-18T04:41:16.456Z,3.65
2023-04-18T04:44:06.031Z,3.10
2023-04-18T04:46:57.101Z,3.00
2023-04-18T04:49:52.085Z,2.97
2023-04-18T04:52:41.335Z,3.00
2023-04-18T04:55:30.841Z,3.20
2023-04-18T04:58:21.079Z,3.25
2023-04-18T05:01:24.828Z,2.90
2023-04-18T05:04:14.597Z,3.40
2023-04-18T05:07:04.288Z,3.00
2023-04-18T05:09:54.581Z,3.20
2023-04-18T05:12:43.718Z,3.00
2023-04-18T05:15:33.869Z,3.13
2023-04-18T05:18:23.268Z,3.38
2023-04-18T05:21:12.607Z,2.97
2023-04-18T05:24:01.998Z,2.90
2023-04-18T05:26:51.487Z,3.63
2023-04-18T05:29:40.915Z,3.60
2023-04-18T05:32:30.193Z,3.03
2023-04-18T05:35:19.502Z,3.40
2023-04-18T05:38:08.681Z,3.40
2023-04-18T05:41:01.243Z,3.17
2023-04-18T05:44:01.928Z,3.10
2023-04-18T05:46:54.408Z,3.35
2023-04-18T05:49:43.740Z,3.10
2023-04-18T05:52:34.200Z,3.00
2023-04-18T05:55:23.730Z,3.75
2023-04-18T05:58:12.926Z,3.20
2023-04-18T06:01:02.790Z,3.20
2023-04-18T06:03:52.225Z,3.30
2023-04-18T06:06:41.900Z,3.40
2023-04-18T06:09:31.665Z,2.90
2023-04-18T06:12:21.134Z,3.10
2023-04-18T06:15:11.301Z,3.15
2023-04-18T06:18:00.745Z,3.20
2023-04-18T06:20:50.356Z,3.00
2023-04-18T06:23:39.597Z,3.30
2023-04-18T06:26:28.943Z,3.03
2023-04-18T06:29:19.204Z,3.05
2023-04-18T06:32:08.649Z,3.00
2023-04-18T06:34:57.922Z,3.10
2023-04-18T06:37:47.213Z,3.25
2023-04-18T06:40:36.604Z,3.45
2023-04-18T06:43:25.847Z,3.05
2023-04-18T06:46:15.211Z,2.90
2023-04-18T06:49:04.834Z,3.20
2023-04-18T06:51:54.168Z,3.38
2023-04-18T06:54:43.608Z,3.03
2023-04-18T06:57:32.838Z,3.63
2023-04-18T07:00:22.444Z,3.30
2023-04-18T07:03:14.399Z,2.75
2023-04-18T07:06:04.222Z,3.25
2023-04-18T07:08:54.519Z,3.13
2023-04-18T07:11:43.869Z,3.00
2023-04-18T07:14:34.238Z,3.08
2023-04-18T07:17:25.530Z,3.38
2023-04-18T07:20:15.088Z,3.40
2023-04-18T07:23:04.379Z,3.40
2023-04-18T07:25:53.674Z,3.00
2023-04-18T07:28:43.003Z,3.05
2023-04-18T07:31:32.499Z,3.65
2023-04-18T07:34:23.119Z,3.45
2023-04-18T07:37:14.872Z,3.65
2023-04-18T07:40:05.355Z,3.05
2023-04-18T07:42:55.056Z,3.13
2023-04-18T07:45:44.419Z,3.45
2023-04-18T07:48:33.807Z,2.90
2023-04-18T07:51:26.481Z,3.20
2023-04-18T07:54:15.713Z,3.53
2023-04-18T07:57:05.033Z,3.10
2023-04-18T07:59:55.136Z,3.20
2023-04-18T08:02:44.677Z,3.15
2023-04-18T08:05:34.344Z,3.15
2023-04-18T08:08:23.665Z,3.05
2023-04-18T08:11:13.229Z,3.20
2023-04-18T08:14:02.844Z,2.90
2023-04-18T08:16:52.303Z,3.10
2023-04-18T08:19:41.498Z,3.10
2023-04-18T08:22:30.737Z,3.05
2023-04-18T08:25:20.053Z,3.40
2023-04-18T08:28:10.502Z,3.47
2023-04-18T08:30:59.928Z,3.00
2023-04-18T08:33:49.252Z,3.45
2023-04-18T08:36:38.457Z,3.10
2023-04-18T08:39:27.713Z,3.08
2023-04-18T08:42:20.574Z,3.10
2023-04-18T08:45:10.680Z,3.00
2023-04-18T08:48:02.452Z,3.15
2023-04-18T08:50:52.356Z,3.05
2023-04-18T08:53:42.990Z,3.38
2023-04-18T08:56:33.055Z,2.90
2023-04-18T08:59:22.275Z,3.38
2023-04-18T09:02:12.868Z,2.90
2023-04-18T09:05:03.021Z,3.00
2023-04-18T09:07:54.180Z,2.92
2023-04-18T09:10:46.661Z,3.33
2023-04-18T09:13:40.760Z,3.10
2023-04-18T09:16:30.851Z,2.97
2023-04-18T09:19:20.155Z,3.05
2023-04-18T09:22:10.962Z,3.22
2023-04-18T09:25:00.211Z,2.97
2023-04-18T09:27:49.397Z,3.13
2023-04-18T09:30:40.633Z,3.03
2023-04-18T09:33:35.405Z,3.38
2023-04-18T09:36:28.236Z,3.30
2023-04-18T09:39:29.517Z,2.80
2023-04-18T09:42:19.373Z,3.40
2023-04-18T09:45:09.635Z,3.10
2023-04-18T09:47:58.923Z,2.97
2023-04-18T09:50:49.957Z,3.10
2023-04-18T09:53:45.662Z,3.10
2023-04-18T09:56:38.385Z,3.22
2023-04-18T09:59:48.651Z,2.90
2023-04-18T10:03:03.627Z,2.95
2023-04-18T10:05:53.958Z,3.20
2023-04-18T10:08:49.327Z,3.30
2023-04-18T10:11:38.781Z,3.00
2023-04-18T10:14:28.530Z,3.20
2023-04-18T10:17:18.134Z,3.35
2023-04-18T10:20:14.218Z,3.10
2023-04-18T10:23:41.000Z,3.00
2023-04-18T10:26:51.253Z,3.00
2023-04-18T10:29:53.449Z,3.22
2023-04-18T10:32:42.757Z,3.10
2023-04-18T10:35:31.985Z,3.10
2023-04-18T10:38:25.224Z,2.92
2023-04-18T10:44:19.350Z,3.00
2023-04-18T10:47:08.797Z,3.15
2023-04-18T10:49:59.390Z,3.15
2023-04-18T10:52:48.655Z,3.00
2023-04-18T10:55:38.876Z,2.70
2023-04-18T10:58:28.824Z,3.00
2023-04-18T11:01:28.517Z,3.50
2023-04-18T11:04:20.222Z,3.03
2023-04-18T11:07:09.731Z,3.00
2023-04-18T11:09:59.014Z,3.00
2023-04-18T11:12:48.867Z,3.00
2023-04-18T11:15:38.690Z,3.30
2023-04-18T11:18:27.899Z,3.03
2023-04-18T11:21:17.471Z,3.35
2023-04-18T11:24:07.006Z,3.33
2023-04-18T11:26:56.850Z,3.30
2023-04-18T11:29:46.081Z,2.97
2023-04-18T11:32:37.087Z,3.25
2023-04-18T11:35:26.291Z,3.35
2023-04-18T11:38:16.917Z,3.50
2023-04-18T11:41:06.144Z,3.60
2023-04-18T11:43:58.176Z,3.28
2023-04-18T11:46:48.834Z,3.30
2023-04-18T11:49:38.058Z,3.08
2023-04-18T11:52:32.847Z,3.03
2023-04-18T11:55:26.555Z,3.40
2023-04-18T11:58:15.888Z,3.20
2023-04-18T12:01:26.204Z,2.92
2023-04-18T12:04:17.757Z,3.20
2023-04-18T12:07:07.812Z,3.42
2023-04-18T12:09:57.243Z,3.40
2023-04-18T12:12:49.789Z,3.20
2023-04-18T12:15:44.687Z,3.40
2023-04-18T12:18:34.042Z,3.65
2023-04-18T12:21:23.389Z,3.10
2023-04-18T12:24:19.360Z,2.95
2023-04-18T12:27:08.653Z,3.20
2023-04-18T12:29:57.891Z,3.28
2023-04-18T12:32:48.187Z,3.28
2023-04-18T12:35:37.821Z,3.35
2023-04-18T12:38:27.091Z,3.30
2023-04-18T12:41:16.376Z,3.42
2023-04-18T12:44:05.841Z,3.25
2023-04-18T12:46:55.152Z,3.10
2023-04-18T12:49:44.458Z,3.38
2023-04-18T12:52:33.660Z,3.00
2023-04-18T12:55:23.831Z,3.33
2023-04-18T12:58:16.214Z,3.20
2023-04-18T13:01:06.054Z,3.37
2023-04-18T13:04:08.294Z,3.20
2023-04-18T13:07:00.780Z,3.00
2023-04-18T13:09:50.179Z,3.00
2023-04-18T13:12:40.356Z,3.33
2023-04-18T13:15:29.685Z,3.33
2023-04-18T13:18:18.838Z,3.22
2023-04-18T13:21:08.695Z,3.10
2023-04-18T13:23:58.024Z,3.30
2023-04-18T13:26:47.363Z,3.17
2023-04-18T13:29:36.890Z,2.88
2023-04-18T13:32:27.519Z,3.10
2023-04-18T13:35:16.838Z,2.90
2023-04-18T13:38:06.128Z,3.28
2023-04-18T13:41:08.574Z,3.15
2023-04-18T13:44:00.863Z,3.17
2023-04-18T13:46:50.079Z,2.88
2023-04-18T13:49:39.398Z,2.90
2023-04-18T13:52:28.599Z,2.92
2023-04-18T13:55:19.732Z,2.90
2023-04-18T13:58:09.815Z,2.60
2023-04-18T14:00:59.436Z,2.85
2023-04-18T14:03:48.787Z,2.83
2023-04-18T14:06:39.266Z,2.90
2023-04-18T14:09:28.802Z,2.53
2023-04-18T14:12:18.042Z,2.60
2023-04-18T14:15:07.829Z,2.78
2023-04-18T14:17:57.193Z,2.70
2023-04-18T14:20:46.423Z,2.67
2023-04-18T14:23:36.551Z,2.83
2023-04-18T14:26:25.878Z,2.83
2023-04-18T14:29:15.779Z,2.47
2023-04-18T14:32:05.280Z,2.50
2023-04-18T14:34:54.808Z,2.70
2023-04-18T14:37:44.021Z,2.65
2023-04-18T14:40:33.275Z,2.70
2023-04-18T14:43:22.638Z,3.08
2023-04-18T14:46:17.700Z,2.75
2023-04-18T14:49:06.957Z,2.58
2023-04-18T14:51:56.342Z,2.78
2023-04-18T14:54:45.466Z,3.05
2023-04-18T14:57:37.560Z,2.70
2023-04-18T15:00:26.890Z,2.80
2023-04-18T15:03:17.403Z,2.60
2023-04-18T15:06:06.932Z,2.60
2023-04-18T15:08:56.305Z,2.70
2023-04-18T15:11:45.494Z,2.67
2023-04-18T15:14:36.135Z,2.92
2023-04-18T15:17:25.334Z,2.90
2023-04-18T15:20:14.616Z,2.63
2023-04-18T15:23:04.143Z,2.80
2023-04-18T15:25:53.449Z,2.63
2023-04-18T15:28:42.651Z,2.83
2023-04-18T15:31:32.414Z,2.70
2023-04-18T15:34:21.789Z,2.83
2023-04-18T15:37:11.128Z,2.70
2023-04-18T15:40:00.519Z,2.90
2023-04-18T15:42:50.842Z,2.70
2023-04-18T15:45:40.057Z,2.70
2023-04-18T15:48:31.289Z,2.75
2023-04-18T15:51:20.500Z,2.95
2023-04-18T15:54:09.853Z,2.58
2023-04-18T15:56:59.203Z,2.50
2023-04-18T15:59:48.497Z,2.63
2023-04-18T16:02:38.126Z,2.80
2023-04-18T16:05:27.634Z,2.95
2023-04-18T16:08:18.799Z,2.88
2023-04-18T16:11:11.270Z,2.67
2023-04-18T16:14:00.602Z,2.80
2023-04-18T16:16:49.907Z,2.80
2023-04-18T16:19:42.057Z,2.75
2023-04-18T16:22:31.403Z,2.65
2023-04-18T16:25:20.868Z,2.53
2023-04-18T16:28:10.072Z,2.70
2023-04-18T16:30:59.385Z,2.80
2023-04-18T16:33:48.664Z,2.83
2023-04-18T16:36:37.908Z,2.70
2023-04-18T16:39:29.075Z,2.60
2023-04-18T16:42:18.306Z,2.80
2023-04-18T16:45:08.070Z,2.92
2023-04-18T16:47:57.408Z,2.80
2023-04-18T16:50:46.857Z,3.05
2023-04-18T16:53:36.116Z,3.25
2023-04-18T16:56:25.387Z,3.00
2023-04-18T16:59:14.663Z,3.47
2023-04-18T17:02:04.150Z,3.30
2023-04-18T17:04:53.495Z,3.00
2023-04-18T17:07:42.783Z,3.00
2023-04-18T17:10:32.661Z,2.78
2023-04-18T17:13:27.858Z,3.35
2023-04-18T17:16:17.398Z,3.25
2023-04-18T17:19:07.463Z,3.10
2023-04-18T17:21:56.718Z,2.92
2023-04-18T17:24:45.973Z,3.15
2023-04-18T17:27:35.233Z,3.13
2023-04-18T17:30:24.627Z,2.97
2023-04-18T17:33:13.809Z,2.72
2023-04-18T17:36:04.330Z,2.80
2023-04-18T17:38:55.289Z,3.00
2023-04-18T17:41:44.516Z,3.00
2023-04-18T17:44:33.870Z,2.70
2023-04-18T17:47:23.181Z,2.63
2023-04-18T17:50:12.862Z,2.92
2023-04-18T17:53:02.430Z,2.92
2023-04-18T17:55:53.297Z,2.78
2023-04-18T17:58:42.573Z,2.78
2023-04-18T18:01:31.843Z,3.15
2023-04-18T18:04:23.019Z,2.97
2023-04-18T18:07:13.395Z,2.80
2023-04-18T18:10:02.687Z,2.97
2023-04-18T18:12:51.977Z,2.72
2023-04-18T18:15:41.751Z,2.50
2023-04-18T18:18:31.018Z,2.75
2023-04-18T18:21:20.652Z,2.92
2023-04-18T18:24:10.255Z,2.72
2023-04-18T18:27:00.058Z,3.10
2023-04-18T18:29:51.052Z,3.20
2023-04-18T18:32:40.403Z,2.83
2023-04-18T18:35:29.643Z,3.00
2023-04-18T18:38:19.024Z,2.78
2023-04-18T18:41:08.268Z,2.90
2023-04-18T18:43:57.634Z,2.70
2023-04-18T18:46:46.852Z,2.80
2023-04-18T18:49:37.372Z,2.67
2023-04-18T18:52:29.060Z,3.03
2023-04-18T18:55:18.719Z,2.72
2023-04-18T18:58:08.998Z,2.95
2023-04-18T19:00:58.476Z,3.28
2023-04-18T19:03:47.932Z,2.88
2023-04-18T19:06:37.375Z,2.85
2023-04-18T19:09:26.659Z,2.70
2023-04-18T19:12:15.909Z,2.67
2023-04-18T19:15:05.938Z,2.90
2023-04-18T19:17:55.174Z,2.78
2023-04-18T19:20:44.398Z,2.78
2023-04-18T19:23:33.663Z,2.90
2023-04-18T19:26:24.110Z,2.50
2023-04-18T19:29:15.239Z,2.90
2023-04-18T19:32:04.671Z,2.65
2023-04-18T19:34:54.004Z,2.88
2023-04-18T19:37:44.213Z,2.78
2023-04-18T19:40:33.599Z,2.83
2023-04-18T19:43:22.802Z,2.80
2023-04-18T19:46:12.421Z,2.80
2023-04-18T19:49:01.695Z,2.80
2023-04-18T19:51:53.430Z,2.63
2023-04-18T19:54:42.737Z,2.90
2023-04-18T19:57:32.031Z,3.30
2023-04-18T20:00:22.720Z,3.00
2023-04-18T20:03:12.261Z,2.83
2023-04-18T20:06:02.504Z,3.05
2023-04-18T20:08:51.761Z,3.15
2023-04-18T20:11:40.983Z,3.30
2023-04-18T20:14:30.893Z,2.90
2023-04-18T20:17:20.274Z,3.38
2023-04-18T20:20:10.506Z,2.67
2023-04-18T20:22:59.736Z,3.10
2023-04-18T20:25:48.930Z,3.03
2023-04-18T20:28:38.936Z,2.90
2023-04-18T20:31:31.755Z,2.70
2023-04-18T20:34:21.520Z,2.88
2023-04-18T20:37:11.115Z,2.83
2023-04-18T20:40:03.995Z,2.80
2023-04-18T20:42:55.543Z,2.53
2023-04-18T20:45:44.855Z,2.80
2023-04-18T20:48:34.328Z,3.15
2023-04-18T20:51:23.612Z,2.90
2023-04-18T20:54:13.244Z,2.72
2023-04-18T20:57:03.686Z,2.42
2023-04-18T20:59:52.919Z,2.72
2023-04-18T21:02:42.776Z,3.08
2023-04-18T21:05:33.216Z,2.53
2023-04-18T21:08:22.481Z,2.70
2023-04-18T21:11:11.882Z,2.72
2023-04-18T21:14:01.129Z,2.97
2023-04-18T21:16:50.347Z,2.90
2023-04-18T21:19:39.625Z,2.75
2023-04-18T21:22:28.988Z,2.60
2023-04-18T21:25:19.637Z,2.80
2023-04-18T21:28:09.199Z,2.60
2023-04-18T21:30:58.435Z,3.00
2023-04-18T21:33:47.625Z,2.55
2023-04-18T21:36:37.032Z,2.75
2023-04-18T21:39:26.580Z,2.50
2023-04-18T21:42:15.816Z,2.75
2023-04-18T21:45:07.428Z,2.70
2023-04-18T21:47:56.743Z,2.75
2023-04-18T21:50:46.061Z,2.60
2023-04-18T21:53:35.364Z,2.88
2023-04-18T21:56:24.612Z,2.65
2023-04-18T21:59:13.895Z,2.78
2023-04-18T22:02:03.234Z,2.83
2023-04-18T22:04:52.474Z,2.83
2023-04-18T22:07:50.553Z,2.90
2023-04-18T22:10:47.367Z,2.60
2023-04-18T22:13:36.756Z,2.80
2023-04-18T22:16:26.103Z,2.65
2023-04-18T22:19:15.391Z,2.80
2023-04-18T22:22:04.714Z,2.70
2023-04-18T22:24:53.991Z,2.85
2023-04-18T22:27:44.086Z,3.03
2023-04-18T22:30:33.638Z,2.90
2023-04-18T22:33:23.039Z,2.90
2023-04-18T22:36:12.503Z,3.15
2023-04-18T22:39:02.399Z,3.00
2023-04-18T22:41:51.693Z,2.90
2023-04-18T22:44:40.905Z,3.30
2023-04-18T22:47:30.147Z,2.65
2023-04-18T22:50:19.540Z,2.75
2023-04-18T22:53:08.796Z,2.83
2023-04-18T22:55:58.051Z,2.78
2023-04-18T22:58:47.279Z,2.95
2023-04-18T23:01:36.483Z,2.70
2023-04-18T23:04:26.072Z,3.03
2023-04-18T23:07:15.433Z,3.03
2023-04-18T23:10:07.476Z,3.00
2023-04-18T23:12:56.667Z,3.05
2023-04-18T23:15:45.943Z,3.10
2023-04-18T23:18:35.219Z,3.08
2023-04-18T23:21:28.845Z,2.80
2023-04-18T23:24:18.028Z,2.78
2023-04-18T23:27:07.472Z,2.80
2023-04-18T23:29:56.693Z,2.75
2023-04-18T23:32:45.971Z,2.45
2023-04-18T23:35:35.223Z,2.80
2023-04-18T23:38:24.535Z,2.83
2023-04-18T23:41:13.766Z,2.60
2023-04-18T23:44:03.159Z,2.78
2023-04-18T23:46:52.448Z,2.30
2023-04-18T23:49:41.960Z,2.50
2023-04-18T23:52:31.218Z,2.72
2023-04-18T23:55:20.477Z,2.58
2023-04-18T23:58:09.728Z,2.63
